Bella Vista, Arkansas
Current Conditions -  °F | °C
As of 9:35 AM on Friday 24 Oct 2014 (Local Time) from KVBT Reporting Station
Clear Clear  
Wind Chill: 59°   Ceiling: Unl
Heat Index: 59°   Visibility: 10mi
Dew Point: 52°   Wind: 5mph
Humidity: 77%   Direction: 200°SSW
Pressure: 30.16"   Gusts: NA
Location:  36.48°N, 94.25°W
Report Text: KVBT 241435Z AUTO 20004KT 10SM CLR 15/11 A3016 RMK AO1
Loading
Personal Weather Stations






























Interactive Weather Map New forecast layout! Learn more

10-Day Weather Forecast

Advertisements
Track Severe Weather on mobile